PWSweather.com
Personal Weather Stations
Station Observations

ChardChardGB

Lat: 50.877408, Lon: -2.94964741

Elevation: 341

Station Type: WS3083

http://www.merriott-astro.co.uk/weather/index.htm

High Low Average
Temperature 62.1°F16.7°F 37.4°F3.0°F 48.4°F9.1°F
Dew Point 44.2°F6.8°F 30.4°F-0.9°F 37.9°F3.3°F
Winds 7.6 mph NE12.2 mph NE Calm Calm 2.7 mph 4.3 mph
Wind Gusts 10.7 mph17.2 mph -- 3.9 mph6.3 mph
Humidity 82% 51% 68%
Pressure 29.72 in1006.40 in 29.60 in1002.40 in -
Precipitation 0.00 in0.00 in - -
Hour Temp Dew Point Humidity Winds Wind Gusts Pressure Precip Precip Rate Daily Precip Total
12:00 AM 44.6°F7.0°C 33.2°F0.7°C 64% Calm Calm -- 29.72 in1006.4 mb 0.00 in0.0 mm 0.00 in0.0 mm 0.00 in0.0 mm
12:10 AM 44.6°F7.0°C 33.2°F0.7°C 64% Calm Calm -- 29.71 in1006.1 mb 0.00 in0.0 mm 0.00 in0.0 mm 0.00 in0.0 mm
12:20 AM 43.7°F6.5°C 32.3°F0.2°C 64% Calm Calm -- 29.71 in1006.1 mb 0.00 in0.0 mm 0.00 in0.0 mm 0.00 in0.0 mm
12:30 AM 43.2°F6.2°C 32.2°F0.1°C 65% Calm Calm -- 29.72 in1006.4 mb 0.00 in0.0 mm 0.00 in0.0 mm 0.00 in0.0 mm
12:40 AM 43.0°F6.1°C 32.4°F0.2°C 66% Calm Calm -- 29.71 in1006.1 mb 0.00 in0.0 mm 0.00 in0.0 mm 0.00 in0.0 mm
12:50 AM 42.6°F5.9°C 32.4°F0.2°C 67% Calm Calm -- 29.71 in1006.1 mb 0.00 in0.0 mm 0.00 in0.0 mm 0.00 in0.0 mm
01:00 AM 42.1°F5.6°C 32.3°F0.2°C 68% Calm Calm -- 29.71 in1006.1 mb 0.00 in0.0 mm 0.00 in0.0 mm 0.00 in0.0 mm
01:10 AM 41.5°F5.3°C 32.1°F0.1°C 69% Calm Calm -- 29.70 in1005.8 mb 0.00 in0.0 mm 0.00 in0.0 mm 0.00 in0.0 mm
01:20 AM 41.5°F5.3°C 32.5°F0.3°C 70% Calm Calm -- 29.69 in1005.4 mb 0.00 in0.0 mm 0.00 in0.0 mm 0.00 in0.0 mm
01:30 AM 41.4°F5.2°C 32.3°F0.2°C 70% Calm Calm -- 29.70 in1005.8 mb 0.00 in0.0 mm 0.00 in0.0 mm 0.00 in0.0 mm
01:40 AM 41.4°F5.2°C 32.3°F0.2°C 70% Calm Calm -- 29.70 in1005.8 mb 0.00 in0.0 mm 0.00 in0.0 mm 0.00 in0.0 mm
01:50 AM 41.2°F5.1°C 32.2°F0.1°C 70% Calm Calm -- 29.70 in1005.8 mb 0.00 in0.0 mm 0.00 in0.0 mm 0.00 in0.0 mm
02:00 AM 40.8°F4.9°C 31.8°F-0.1°C 70% Calm Calm -- 29.70 in1005.8 mb 0.00 in0.0 mm 0.00 in0.0 mm 0.00 in0.0 mm
02:10 AM 40.6°F4.8°C 32.0°F0.0°C 71% Calm Calm -- 29.70 in1005.8 mb 0.00 in0.0 mm 0.00 in0.0 mm 0.00 in0.0 mm
02:20 AM 40.1°F4.5°C 31.5°F-0.3°C 71% Calm Calm -- 29.70 in1005.8 mb 0.00 in0.0 mm 0.00 in0.0 mm 0.00 in0.0 mm
02:30 AM 39.7°F4.3°C 31.1°F-0.5°C 71% Calm Calm -- 29.69 in1005.4 mb 0.00 in0.0 mm 0.00 in0.0 mm 0.00 in0.0 mm
02:40 AM 39.4°F4.1°C 31.1°F-0.5°C 72% Calm Calm -- 29.69 in1005.4 mb 0.00 in0.0 mm 0.00 in0.0 mm 0.00 in0.0 mm
02:50 AM 39.6°F4.2°C 31.6°F-0.2°C 73% Calm Calm -- 29.69 in1005.4 mb 0.00 in0.0 mm 0.00 in0.0 mm 0.00 in0.0 mm
03:00 AM 39.2°F4.0°C 30.9°F-0.6°C 72% Calm Calm -- 29.69 in1005.4 mb 0.00 in0.0 mm 0.00 in0.0 mm 0.00 in0.0 mm
03:10 AM 39.0°F3.9°C 31.1°F-0.5°C 73% Calm Calm -- 29.69 in1005.4 mb 0.00 in0.0 mm 0.00 in0.0 mm 0.00 in0.0 mm
03:20 AM 38.7°F3.7°C 30.8°F-0.7°C 73% Calm Calm -- 29.69 in1005.4 mb 0.00 in0.0 mm 0.00 in0.0 mm 0.00 in0.0 mm
03:30 AM 38.5°F3.6°C 30.6°F-0.8°C 73% Calm Calm -- 29.69 in1005.4 mb 0.00 in0.0 mm 0.00 in0.0 mm 0.00 in0.0 mm
03:40 AM 38.3°F3.5°C 30.4°F-0.9°C 73% Calm Calm -- 29.69 in1005.4 mb 0.00 in0.0 mm 0.00 in0.0 mm 0.00 in0.0 mm
03:50 AM 38.3°F3.5°C 30.8°F-0.7°C 74% Calm Calm -- 29.69 in1005.4 mb 0.00 in0.0 mm 0.00 in0.0 mm 0.00 in0.0 mm
04:00 AM 38.3°F3.5°C 31.1°F-0.5°C 75% Calm Calm -- 29.69 in1005.4 mb 0.00 in0.0 mm 0.00 in0.0 mm 0.00 in0.0 mm
04:10 AM 37.9°F3.3°C 31.1°F-0.5°C 76% Calm Calm -- 29.68 in1005.1 mb 0.00 in0.0 mm 0.00 in0.0 mm 0.00 in0.0 mm
04:20 AM 37.9°F3.3°C 31.1°F-0.5°C 76% Calm Calm -- 29.68 in1005.1 mb 0.00 in0.0 mm 0.00 in0.0 mm 0.00 in0.0 mm
04:30 AM 37.8°F3.2°C 30.9°F-0.6°C 76% Calm Calm -- 29.68 in1005.1 mb 0.00 in0.0 mm 0.00 in0.0 mm 0.00 in0.0 mm
04:40 AM 37.4°F3.0°C 30.5°F-0.8°C 76% Calm Calm -- 29.68 in1005.1 mb 0.00 in0.0 mm 0.00 in0.0 mm 0.00 in0.0 mm
04:50 AM 37.4°F3.0°C 30.9°F-0.6°C 77% Calm Calm -- 29.68 in1005.1 mb 0.00 in0.0 mm 0.00 in0.0 mm 0.00 in0.0 mm
05:00 AM 37.4°F3.0°C 30.9°F-0.6°C 77% Calm Calm -- 29.68 in1005.1 mb 0.00 in0.0 mm 0.00 in0.0 mm 0.00 in0.0 mm
05:10 AM 37.6°F3.1°C 31.4°F-0.3°C 78% Calm Calm -- 29.69 in1005.4 mb 0.00 in0.0 mm 0.00 in0.0 mm 0.00 in0.0 mm
05:20 AM 38.3°F3.5°C 32.1°F0.1°C 78% Calm Calm -- 29.69 in1005.4 mb 0.00 in0.0 mm 0.00 in0.0 mm 0.00 in0.0 mm
05:30 AM 38.7°F3.7°C 32.7°F0.4°C 79% 0.2 mph NE0.3 kmh NE 1.6 mph2.6 kmh 29.69 in1005.4 mb 0.00 in0.0 mm 0.00 in0.0 mm 0.00 in0.0 mm
05:40 AM 39.2°F4.0°C 33.6°F0.9°C 80% 1.9 mph NE3.1 kmh NE 3.1 mph5.0 kmh 29.69 in1005.4 mb 0.00 in0.0 mm 0.00 in0.0 mm 0.00 in0.0 mm
05:50 AM 39.2°F4.0°C 33.6°F0.9°C 80% 2.1 mph NE3.4 kmh NE 3.1 mph5.0 kmh 29.69 in1005.4 mb 0.00 in0.0 mm 0.00 in0.0 mm 0.00 in0.0 mm
06:00 AM 39.2°F4.0°C 33.6°F0.9°C 80% 1.4 mph NE2.3 kmh NE 2.2 mph3.5 kmh 29.69 in1005.4 mb 0.00 in0.0 mm 0.00 in0.0 mm 0.00 in0.0 mm
06:10 AM 39.2°F4.0°C 33.6°F0.9°C 80% 1.5 mph NE2.4 kmh NE 3.1 mph5.0 kmh 29.69 in1005.4 mb 0.00 in0.0 mm 0.00 in0.0 mm 0.00 in0.0 mm
06:20 AM 39.7°F4.3°C 34.1°F1.2°C 80% 2.0 mph NE3.2 kmh NE 3.1 mph5.0 kmh 29.69 in1005.4 mb 0.00 in0.0 mm 0.00 in0.0 mm 0.00 in0.0 mm
06:30 AM 40.3°F4.6°C 34.6°F1.4°C 80% 2.2 mph NE3.5 kmh NE 3.1 mph5.0 kmh 29.69 in1005.4 mb 0.00 in0.0 mm 0.00 in0.0 mm 0.00 in0.0 mm
06:40 AM 41.0°F5.0°C 35.6°F2.0°C 81% 3.9 mph NE6.3 kmh NE 6.0 mph9.7 kmh 29.69 in1005.4 mb 0.00 in0.0 mm 0.00 in0.0 mm 0.00 in0.0 mm
06:50 AM 41.4°F5.2°C 36.0°F2.2°C 81% 4.2 mph NE6.8 kmh NE 5.4 mph8.7 kmh 29.69 in1005.4 mb 0.00 in0.0 mm 0.00 in0.0 mm 0.00 in0.0 mm
07:00 AM 41.5°F5.3°C 35.8°F2.1°C 80% 4.4 mph NE7.1 kmh NE 6.0 mph9.7 kmh 29.70 in1005.8 mb 0.00 in0.0 mm 0.00 in0.0 mm 0.00 in0.0 mm
07:10 AM 42.3°F5.7°C 36.5°F2.5°C 80% 4.4 mph NE7.1 kmh NE 6.9 mph11.1 kmh 29.69 in1005.4 mb 0.00 in0.0 mm 0.00 in0.0 mm 0.00 in0.0 mm
07:20 AM 42.4°F5.8°C 36.1°F2.3°C 78% 3.0 mph E4.8 kmh E 4.5 mph7.2 kmh 29.69 in1005.4 mb 0.00 in0.0 mm 0.00 in0.0 mm 0.00 in0.0 mm
07:30 AM 43.2°F6.2°C 36.1°F2.3°C 76% 3.8 mph NE6.1 kmh NE 5.4 mph8.7 kmh 29.69 in1005.4 mb 0.00 in0.0 mm 0.00 in0.0 mm 0.00 in0.0 mm
07:40 AM 44.6°F7.0°C 37.2°F2.9°C 75% 2.6 mph NE4.2 kmh NE 3.8 mph6.1 kmh 29.70 in1005.8 mb 0.00 in0.0 mm 0.00 in0.0 mm 0.00 in0.0 mm
07:50 AM 45.0°F7.2°C 36.5°F2.5°C 72% 3.9 mph NE6.3 kmh NE 5.4 mph8.7 kmh 29.69 in1005.4 mb 0.00 in0.0 mm 0.00 in0.0 mm 0.00 in0.0 mm
08:00 AM 45.1°F7.3°C 36.3°F2.4°C 71% 4.0 mph NE6.4 kmh NE 6.0 mph9.7 kmh 29.70 in1005.8 mb 0.00 in0.0 mm 0.00 in0.0 mm 0.00 in0.0 mm
08:10 AM 45.3°F7.4°C 36.5°F2.5°C 71% 3.6 mph NE5.8 kmh NE 6.0 mph9.7 kmh 29.70 in1005.8 mb 0.00 in0.0 mm 0.00 in0.0 mm 0.00 in0.0 mm
08:20 AM 45.5°F7.5°C 35.6°F2.0°C 68% 4.9 mph NE7.9 kmh NE 7.6 mph12.2 kmh 29.70 in1005.8 mb 0.00 in0.0 mm 0.00 in0.0 mm 0.00 in0.0 mm
08:30 AM 46.4°F8.0°C 36.0°F2.2°C 67% 4.2 mph NE6.8 kmh NE 5.4 mph8.7 kmh 29.70 in1005.8 mb 0.00 in0.0 mm 0.00 in0.0 mm 0.00 in0.0 mm
08:40 AM 46.8°F8.2°C 35.6°F2.0°C 65% 5.0 mph NE8.0 kmh NE 7.6 mph12.2 kmh 29.70 in1005.8 mb 0.00 in0.0 mm 0.00 in0.0 mm 0.00 in0.0 mm
08:50 AM 46.9°F8.3°C 35.4°F1.9°C 64% 5.9 mph NNE9.5 kmh NNE 7.6 mph12.2 kmh 29.70 in1005.8 mb 0.00 in0.0 mm 0.00 in0.0 mm 0.00 in0.0 mm
09:00 AM 47.1°F8.4°C 36.0°F2.2°C 65% 5.5 mph NNE8.9 kmh NNE 6.9 mph11.1 kmh 29.70 in1005.8 mb 0.00 in0.0 mm 0.00 in0.0 mm 0.00 in0.0 mm
09:10 AM 47.7°F8.7°C 36.5°F2.5°C 65% 6.1 mph NNE9.8 kmh NNE 9.2 mph14.8 kmh 29.71 in1006.1 mb 0.00 in0.0 mm 0.00 in0.0 mm 0.00 in0.0 mm
09:20 AM 48.6°F9.2°C 37.3°F2.9°C 65% 5.6 mph NNE9.0 kmh NNE 6.9 mph11.1 kmh 29.70 in1005.8 mb 0.00 in0.0 mm 0.00 in0.0 mm 0.00 in0.0 mm
09:30 AM 49.5°F9.7°C 37.4°F3.0°C 63% 5.2 mph N8.4 kmh N 7.6 mph12.2 kmh 29.70 in1005.8 mb 0.00 in0.0 mm 0.00 in0.0 mm 0.00 in0.0 mm
09:40 AM 49.8°F9.9°C 37.7°F3.2°C 63% 4.6 mph N7.4 kmh N 5.4 mph8.7 kmh 29.70 in1005.8 mb 0.00 in0.0 mm 0.00 in0.0 mm 0.00 in0.0 mm
09:50 AM 49.8°F9.9°C 37.7°F3.2°C 63% 5.7 mph NE9.2 kmh NE 8.3 mph13.4 kmh 29.70 in1005.8 mb 0.00 in0.0 mm 0.00 in0.0 mm 0.00 in0.0 mm
10:00 AM 50.5°F10.3°C 38.4°F3.6°C 63% 7.0 mph NE11.3 kmh NE 9.8 mph15.8 kmh 29.69 in1005.4 mb 0.00 in0.0 mm 0.00 in0.0 mm 0.00 in0.0 mm
10:10 AM 51.8°F11.0°C 39.2°F4.0°C 62% 6.4 mph NNE10.3 kmh NNE 9.2 mph14.8 kmh 29.70 in1005.8 mb 0.00 in0.0 mm 0.00 in0.0 mm 0.00 in0.0 mm
10:20 AM 51.1°F10.6°C 38.5°F3.6°C 62% 7.5 mph E12.1 kmh E 9.2 mph14.8 kmh 29.70 in1005.8 mb 0.00 in0.0 mm 0.00 in0.0 mm 0.00 in0.0 mm
10:30 AM 50.2°F10.1°C 38.1°F3.4°C 63% 7.6 mph NE12.2 kmh NE 9.2 mph14.8 kmh 29.69 in1005.4 mb 0.00 in0.0 mm 0.00 in0.0 mm 0.00 in0.0 mm
10:40 AM 50.5°F10.3°C 39.2°F4.0°C 65% 7.5 mph NE12.1 kmh NE 9.8 mph15.8 kmh 29.69 in1005.4 mb 0.00 in0.0 mm 0.00 in0.0 mm 0.00 in0.0 mm
10:50 AM 52.7°F11.5°C 40.1°F4.5°C 62% 7.2 mph NE11.6 kmh NE 9.2 mph14.8 kmh 29.70 in1005.8 mb 0.00 in0.0 mm 0.00 in0.0 mm 0.00 in0.0 mm
11:00 AM 51.3°F10.7°C 38.7°F3.7°C 62% 6.9 mph NNE11.1 kmh NNE 10.7 mph17.2 kmh 29.69 in1005.4 mb 0.00 in0.0 mm 0.00 in0.0 mm 0.00 in0.0 mm
11:10 AM 51.1°F10.6°C 39.3°F4.1°C 64% 5.3 mph NNE8.5 kmh NNE 10.7 mph17.2 kmh 29.68 in1005.1 mb 0.00 in0.0 mm 0.00 in0.0 mm 0.00 in0.0 mm
11:20 AM 52.5°F11.4°C 40.3°F4.6°C 63% 7.0 mph NE11.3 kmh NE 10.7 mph17.2 kmh 29.68 in1005.1 mb 0.00 in0.0 mm 0.00 in0.0 mm 0.00 in0.0 mm
11:30 AM 53.4°F11.9°C 41.2°F5.1°C 63% 5.9 mph NNE9.5 kmh NNE 8.3 mph13.4 kmh 29.68 in1005.1 mb 0.00 in0.0 mm 0.00 in0.0 mm 0.00 in0.0 mm
11:40 AM 54.9°F12.7°C 40.8°F4.9°C 59% 7.3 mph NE11.7 kmh NE 9.2 mph14.8 kmh 29.67 in1004.7 mb 0.00 in0.0 mm 0.00 in0.0 mm 0.00 in0.0 mm
11:50 AM 55.6°F13.1°C 41.0°F5.0°C 58% 7.2 mph NNE11.6 kmh NNE 9.2 mph14.8 kmh 29.67 in1004.7 mb 0.00 in0.0 mm 0.00 in0.0 mm 0.00 in0.0 mm
12:00 PM 55.9°F13.3°C 40.5°F4.7°C 56% 7.4 mph NE11.9 kmh NE 9.2 mph14.8 kmh 29.67 in1004.7 mb 0.00 in0.0 mm 0.00 in0.0 mm 0.00 in0.0 mm
12:10 PM 55.6°F13.1°C 40.1°F4.5°C 56% 7.3 mph NNE11.7 kmh NNE 9.8 mph15.8 kmh 29.67 in1004.7 mb 0.00 in0.0 mm 0.00 in0.0 mm 0.00 in0.0 mm
12:20 PM 55.4°F13.0°C 41.3°F5.2°C 59% 6.0 mph NE9.7 kmh NE 8.3 mph13.4 kmh 29.66 in1004.4 mb 0.00 in0.0 mm 0.00 in0.0 mm 0.00 in0.0 mm
12:30 PM 55.6°F13.1°C 41.5°F5.3°C 59% 7.6 mph NNE12.2 kmh NNE 9.2 mph14.8 kmh 29.67 in1004.7 mb 0.00 in0.0 mm 0.00 in0.0 mm 0.00 in0.0 mm
12:40 PM 57.0°F13.9°C 41.9°F5.5°C 57% 6.1 mph NE9.8 kmh NE 7.6 mph12.2 kmh 29.66 in1004.4 mb 0.00 in0.0 mm 0.00 in0.0 mm 0.00 in0.0 mm
12:50 PM 56.1°F13.4°C 41.6°F5.3°C 58% 6.5 mph ENE10.5 kmh ENE 8.3 mph13.4 kmh 29.66 in1004.4 mb 0.00 in0.0 mm 0.00 in0.0 mm 0.00 in0.0 mm
01:00 PM 56.7°F13.7°C 41.2°F5.1°C 56% 6.1 mph NE9.8 kmh NE 9.2 mph14.8 kmh 29.66 in1004.4 mb 0.00 in0.0 mm 0.00 in0.0 mm 0.00 in0.0 mm
01:10 PM 56.1°F13.4°C 41.1°F5.1°C 57% 4.2 mph NE6.8 kmh NE 6.0 mph9.7 kmh 29.66 in1004.4 mb 0.00 in0.0 mm 0.00 in0.0 mm 0.00 in0.0 mm
01:20 PM 57.0°F13.9°C 41.9°F5.5°C 57% 6.1 mph NNE9.8 kmh NNE 9.2 mph14.8 kmh 29.65 in1004.1 mb 0.00 in0.0 mm 0.00 in0.0 mm 0.00 in0.0 mm
01:30 PM 58.8°F14.9°C 42.2°F5.7°C 54% 5.5 mph NE8.9 kmh NE 9.2 mph14.8 kmh 29.65 in1004.1 mb 0.00 in0.0 mm 0.00 in0.0 mm 0.00 in0.0 mm
01:40 PM 59.5°F15.3°C 42.4°F5.8°C 53% 5.6 mph NE9.0 kmh NE 6.9 mph11.1 kmh 29.64 in1003.7 mb 0.00 in0.0 mm 0.00 in0.0 mm 0.00 in0.0 mm
01:50 PM 59.9°F15.5°C 42.7°F5.9°C 53% 5.1 mph NE8.2 kmh NE 6.9 mph11.1 kmh 29.63 in1003.4 mb 0.00 in0.0 mm 0.00 in0.0 mm 0.00 in0.0 mm
02:00 PM 60.6°F15.9°C 43.4°F6.3°C 53% 5.7 mph NE9.2 kmh NE 6.9 mph11.1 kmh 29.63 in1003.4 mb 0.00 in0.0 mm 0.00 in0.0 mm 0.00 in0.0 mm
02:10 PM 60.8°F16.0°C 43.1°F6.2°C 52% 5.6 mph NE9.0 kmh NE 7.6 mph12.2 kmh 29.63 in1003.4 mb 0.00 in0.0 mm 0.00 in0.0 mm 0.00 in0.0 mm
02:20 PM 61.3°F16.3°C 43.1°F6.2°C 51% 6.3 mph NE10.1 kmh NE 9.2 mph14.8 kmh 29.63 in1003.4 mb 0.00 in0.0 mm 0.00 in0.0 mm 0.00 in0.0 mm
02:30 PM 61.9°F16.6°C 44.1°F6.7°C 52% 5.3 mph NNE8.5 kmh NNE 8.3 mph13.4 kmh 29.62 in1003.0 mb 0.00 in0.0 mm 0.00 in0.0 mm 0.00 in0.0 mm
02:40 PM 61.9°F16.6°C 43.6°F6.4°C 51% 5.6 mph NNE9.0 kmh NNE 8.3 mph13.4 kmh 29.62 in1003.0 mb 0.00 in0.0 mm 0.00 in0.0 mm 0.00 in0.0 mm
02:50 PM 61.9°F16.6°C 43.6°F6.4°C 51% 5.1 mph NE8.2 kmh NE 7.6 mph12.2 kmh 29.62 in1003.0 mb 0.00 in0.0 mm 0.00 in0.0 mm 0.00 in0.0 mm
03:00 PM 62.1°F16.7°C 43.7°F6.5°C 51% 4.7 mph NE7.6 kmh NE 6.0 mph9.7 kmh 29.62 in1003.0 mb 0.00 in0.0 mm 0.00 in0.0 mm 0.00 in0.0 mm
03:10 PM 60.8°F16.0°C 43.1°F6.2°C 52% 5.0 mph NE8.0 kmh NE 9.2 mph14.8 kmh 29.62 in1003.0 mb 0.00 in0.0 mm 0.00 in0.0 mm 0.00 in0.0 mm
03:20 PM 61.0°F16.1°C 43.2°F6.2°C 52% 3.7 mph ENE6.0 kmh ENE 6.9 mph11.1 kmh 29.62 in1003.0 mb 0.00 in0.0 mm 0.00 in0.0 mm 0.00 in0.0 mm
03:30 PM 61.3°F16.3°C 43.6°F6.4°C 52% 6.6 mph NNE10.6 kmh NNE 9.2 mph14.8 kmh 29.62 in1003.0 mb 0.00 in0.0 mm 0.00 in0.0 mm 0.00 in0.0 mm
03:40 PM 59.9°F15.5°C 42.7°F5.9°C 53% 6.0 mph NE9.7 kmh NE 9.2 mph14.8 kmh 29.62 in1003.0 mb 0.00 in0.0 mm 0.00 in0.0 mm 0.00 in0.0 mm
03:50 PM 58.5°F14.7°C 42.8°F6.0°C 56% 5.2 mph NE8.4 kmh NE 7.6 mph12.2 kmh 29.61 in1002.7 mb 0.00 in0.0 mm 0.00 in0.0 mm 0.00 in0.0 mm
04:00 PM 58.8°F14.9°C 43.6°F6.4°C 57% 4.4 mph NNE7.1 kmh NNE 6.0 mph9.7 kmh 29.62 in1003.0 mb 0.00 in0.0 mm 0.00 in0.0 mm 0.00 in0.0 mm
04:10 PM 58.8°F14.9°C 43.2°F6.2°C 56% 3.6 mph NE5.8 kmh NE 5.4 mph8.7 kmh 29.61 in1002.7 mb 0.00 in0.0 mm 0.00 in0.0 mm 0.00 in0.0 mm
04:20 PM 58.8°F14.9°C 43.6°F6.4°C 57% 3.9 mph NE6.3 kmh NE 5.4 mph8.7 kmh 29.61 in1002.7 mb 0.00 in0.0 mm 0.00 in0.0 mm 0.00 in0.0 mm
04:30 PM 59.9°F15.5°C 44.2°F6.8°C 56% 2.6 mph NE4.2 kmh NE 3.8 mph6.1 kmh 29.61 in1002.7 mb 0.00 in0.0 mm 0.00 in0.0 mm 0.00 in0.0 mm
04:40 PM 60.4°F15.8°C 43.7°F6.5°C 54% 3.6 mph NE5.8 kmh NE 5.4 mph8.7 kmh 29.61 in1002.7 mb 0.00 in0.0 mm 0.00 in0.0 mm 0.00 in0.0 mm
04:50 PM 60.4°F15.8°C 43.7°F6.5°C 54% 2.7 mph NNE4.3 kmh NNE 3.8 mph6.1 kmh 29.61 in1002.7 mb 0.00 in0.0 mm 0.00 in0.0 mm 0.00 in0.0 mm
05:00 PM 60.3°F15.7°C 43.1°F6.2°C 53% 3.2 mph NE5.1 kmh NE 4.5 mph7.2 kmh 29.62 in1003.0 mb 0.00 in0.0 mm 0.00 in0.0 mm 0.00 in0.0 mm
05:10 PM 60.4°F15.8°C 43.7°F6.5°C 54% 2.9 mph NE4.7 kmh NE 4.5 mph7.2 kmh 29.61 in1002.7 mb 0.00 in0.0 mm 0.00 in0.0 mm 0.00 in0.0 mm
05:20 PM 60.4°F15.8°C 43.7°F6.5°C 54% 1.9 mph NE3.1 kmh NE 3.8 mph6.1 kmh 29.62 in1003.0 mb 0.00 in0.0 mm 0.00 in0.0 mm 0.00 in0.0 mm
05:30 PM 59.7°F15.4°C 43.5°F6.4°C 55% 2.5 mph N4.0 kmh N 3.8 mph6.1 kmh 29.62 in1003.0 mb 0.00 in0.0 mm 0.00 in0.0 mm 0.00 in0.0 mm
05:40 PM 58.3°F14.6°C 43.1°F6.2°C 57% 2.4 mph NW3.9 kmh NW 3.8 mph6.1 kmh 29.63 in1003.4 mb 0.00 in0.0 mm 0.00 in0.0 mm 0.00 in0.0 mm
05:50 PM 57.6°F14.2°C 43.4°F6.3°C 59% 2.3 mph NW3.7 kmh NW 4.5 mph7.2 kmh 29.63 in1003.4 mb 0.00 in0.0 mm 0.00 in0.0 mm 0.00 in0.0 mm
06:00 PM 56.7°F13.7°C 42.9°F6.1°C 60% 1.7 mph N2.7 kmh N 4.5 mph7.2 kmh 29.62 in1003.0 mb 0.00 in0.0 mm 0.00 in0.0 mm 0.00 in0.0 mm
06:10 PM 55.8°F13.2°C 42.1°F5.6°C 60% 1.1 mph NNE1.8 kmh NNE 3.1 mph5.0 kmh 29.62 in1003.0 mb 0.00 in0.0 mm 0.00 in0.0 mm 0.00 in0.0 mm
06:20 PM 55.0°F12.8°C 41.8°F5.4°C 61% 0.2 mph NNE0.3 kmh NNE 2.2 mph3.5 kmh 29.63 in1003.4 mb 0.00 in0.0 mm 0.00 in0.0 mm 0.00 in0.0 mm
06:30 PM 54.1°F12.3°C 42.6°F5.9°C 65% 2.2 mph NW3.5 kmh NW 4.5 mph7.2 kmh 29.62 in1003.0 mb 0.00 in0.0 mm 0.00 in0.0 mm 0.00 in0.0 mm
06:40 PM 53.4°F11.9°C 43.1°F6.2°C 68% 2.2 mph NE3.5 kmh NE 2.2 mph3.5 kmh 29.61 in1002.7 mb 0.00 in0.0 mm 0.00 in0.0 mm 0.00 in0.0 mm
06:50 PM 52.5°F11.4°C 42.7°F5.9°C 69% 0.7 mph NE1.1 kmh NE 2.2 mph3.5 kmh 29.61 in1002.7 mb 0.00 in0.0 mm 0.00 in0.0 mm 0.00 in0.0 mm
07:00 PM 51.6°F10.9°C 42.2°F5.7°C 70% 0.4 mph NNE0.6 kmh NNE 1.6 mph2.6 kmh 29.61 in1002.7 mb 0.00 in0.0 mm 0.00 in0.0 mm 0.00 in0.0 mm
07:10 PM 51.1°F10.6°C 42.0°F5.6°C 71% 0.5 mph NE0.8 kmh NE 1.6 mph2.6 kmh 29.62 in1003.0 mb 0.00 in0.0 mm 0.00 in0.0 mm 0.00 in0.0 mm
07:20 PM 50.5°F10.3°C 41.5°F5.3°C 71% 0.3 mph NNE0.5 kmh NNE 2.2 mph3.5 kmh 29.62 in1003.0 mb 0.00 in0.0 mm 0.00 in0.0 mm 0.00 in0.0 mm
07:30 PM 50.4°F10.2°C 41.7°F5.4°C 72% 2.5 mph NE4.0 kmh NE 3.8 mph6.1 kmh 29.61 in1002.7 mb 0.00 in0.0 mm 0.00 in0.0 mm 0.00 in0.0 mm
07:40 PM 49.8°F9.9°C 41.2°F5.1°C 72% 3.5 mph NE5.6 kmh NE 5.4 mph8.7 kmh 29.62 in1003.0 mb 0.00 in0.0 mm 0.00 in0.0 mm 0.00 in0.0 mm
07:50 PM 49.3°F9.6°C 40.6°F4.8°C 72% 3.0 mph NNE4.8 kmh NNE 3.8 mph6.1 kmh 29.62 in1003.0 mb 0.00 in0.0 mm 0.00 in0.0 mm 0.00 in0.0 mm
08:00 PM 48.7°F9.3°C 40.1°F4.5°C 72% 1.4 mph NE2.3 kmh NE 3.1 mph5.0 kmh 29.62 in1003.0 mb 0.00 in0.0 mm 0.00 in0.0 mm 0.00 in0.0 mm
08:10 PM 48.4°F9.1°C 40.1°F4.5°C 73% 2.2 mph NE3.5 kmh NE 3.8 mph6.1 kmh 29.62 in1003.0 mb 0.00 in0.0 mm 0.00 in0.0 mm 0.00 in0.0 mm
08:20 PM 48.0°F8.9°C 39.8°F4.3°C 73% 1.0 mph ENE1.6 kmh ENE 3.1 mph5.0 kmh 29.62 in1003.0 mb 0.00 in0.0 mm 0.00 in0.0 mm 0.00 in0.0 mm
08:30 PM 47.8°F8.8°C 40.0°F4.4°C 74% 1.9 mph NE3.1 kmh NE 3.8 mph6.1 kmh 29.61 in1002.7 mb 0.00 in0.0 mm 0.00 in0.0 mm 0.00 in0.0 mm
08:40 PM 47.5°F8.6°C 39.6°F4.2°C 74% 0.7 mph NE1.1 kmh NE 2.2 mph3.5 kmh 29.62 in1003.0 mb 0.00 in0.0 mm 0.00 in0.0 mm 0.00 in0.0 mm
08:50 PM 47.1°F8.4°C 39.3°F4.1°C 74% 0.5 mph NE0.8 kmh NE 1.6 mph2.6 kmh 29.62 in1003.0 mb 0.00 in0.0 mm 0.00 in0.0 mm 0.00 in0.0 mm
09:00 PM 46.6°F8.1°C 38.7°F3.7°C 74% Calm Calm -- 29.61 in1002.7 mb 0.00 in0.0 mm 0.00 in0.0 mm 0.00 in0.0 mm
09:10 PM 46.2°F7.9°C 38.4°F3.6°C 74% Calm Calm -- 29.61 in1002.7 mb 0.00 in0.0 mm 0.00 in0.0 mm 0.00 in0.0 mm
09:20 PM 46.0°F7.8°C 38.6°F3.7°C 75% Calm Calm -- 29.61 in1002.7 mb 0.00 in0.0 mm 0.00 in0.0 mm 0.00 in0.0 mm
09:30 PM 45.5°F7.5°C 38.0°F3.3°C 75% Calm Calm -- 29.61 in1002.7 mb 0.00 in0.0 mm 0.00 in0.0 mm 0.00 in0.0 mm
09:40 PM 45.0°F7.2°C 39.5°F4.2°C 81% Calm Calm -- 29.61 in1002.7 mb 0.00 in0.0 mm 0.00 in0.0 mm 0.00 in0.0 mm
09:50 PM 44.8°F7.1°C 39.3°F4.1°C 81% Calm Calm -- 29.61 in1002.7 mb 0.00 in0.0 mm 0.00 in0.0 mm 0.00 in0.0 mm
10:00 PM 44.4°F6.9°C 39.0°F3.9°C 81% Calm Calm -- 29.61 in1002.7 mb 0.00 in0.0 mm 0.00 in0.0 mm 0.00 in0.0 mm
10:10 PM 44.2°F6.8°C 38.8°F3.8°C 81% Calm Calm -- 29.61 in1002.7 mb 0.00 in0.0 mm 0.00 in0.0 mm 0.00 in0.0 mm
10:20 PM 43.9°F6.6°C 38.4°F3.6°C 81% Calm Calm -- 29.61 in1002.7 mb 0.00 in0.0 mm 0.00 in0.0 mm 0.00 in0.0 mm
10:30 PM 43.5°F6.4°C 38.1°F3.4°C 81% Calm Calm -- 29.61 in1002.7 mb 0.00 in0.0 mm 0.00 in0.0 mm 0.00 in0.0 mm
10:40 PM 43.3°F6.3°C 37.9°F3.3°C 81% Calm Calm -- 29.60 in1002.4 mb 0.00 in0.0 mm 0.00 in0.0 mm 0.00 in0.0 mm
10:50 PM 43.0°F6.1°C 37.6°F3.1°C 81% Calm Calm -- 29.61 in1002.7 mb 0.00 in0.0 mm 0.00 in0.0 mm 0.00 in0.0 mm
11:00 PM 42.4°F5.8°C 37.3°F2.9°C 82% Calm Calm -- 29.60 in1002.4 mb 0.00 in0.0 mm 0.00 in0.0 mm 0.00 in0.0 mm
11:10 PM 41.9°F5.5°C 36.5°F2.5°C 81% Calm Calm -- 29.60 in1002.4 mb 0.00 in0.0 mm 0.00 in0.0 mm 0.00 in0.0 mm
11:20 PM 42.3°F5.7°C 37.2°F2.9°C 82% Calm Calm -- 29.60 in1002.4 mb 0.00 in0.0 mm 0.00 in0.0 mm 0.00 in0.0 mm
11:30 PM 42.3°F5.7°C 37.2°F2.9°C 82% Calm Calm -- 29.60 in1002.4 mb 0.00 in0.0 mm 0.00 in0.0 mm 0.00 in0.0 mm
11:40 PM 42.3°F5.7°C 37.2°F2.9°C 82% Calm Calm -- 29.61 in1002.7 mb 0.00 in0.0 mm 0.00 in0.0 mm 0.00 in0.0 mm
11:50 PM 42.4°F5.8°C 37.3°F2.9°C 82% Calm Calm -- 29.60 in1002.4 mb 0.00 in0.0 mm 0.00 in0.0 mm 0.00 in0.0 mm